Terminal Aerodrome Forecast
Issued by NWS Charleston, WV

Home | Current Version | Previous Version | Text Only | Print | Product List | Glossary On
Versions: 1 2 3 4 5 6 7 8 9 10 11 12 13 14 15 16 17 18 19 20 21 22 23 24 25
266
FTUS41 KRLX 182339
TAFHTS
TAF
KHTS 182339Z 1900/1924 00000KT P6SM OVC020
     FM190200 00000KT P6SM OVC015
     FM191000 00000KT P6SM BKN250
     FM191100 00000KT 1SM BR SCT001
     FM191200 00000KT 1/4SM FG VV001
     FM191400 00000KT 3SM BR SCT002 BKN250
     FM191500 VRB03KT P6SM BKN250
     FM191600 VRB03KT P6SM SCT020
     FM191900 VRB03KT P6SM SCT250=

USA.gov is the U.S. government's official web portal to all federal, state and local government web resources and services.